createdAt,value
2022-10-12T00:01:26.116Z,12.49
2022-10-12T00:03:53.858Z,12.50
2022-10-12T00:06:23.746Z,12.50
2022-10-12T00:08:54.153Z,12.49
2022-10-12T00:11:24.564Z,12.49
2022-10-12T00:13:52.999Z,12.47
2022-10-12T00:16:24.084Z,12.45
2022-10-12T00:18:52.364Z,12.45
2022-10-12T00:21:20.805Z,12.45
2022-10-12T00:23:48.912Z,12.43
2022-10-12T00:26:19.497Z,12.43
2022-10-12T00:28:48.154Z,12.43
2022-10-12T00:31:17.469Z,12.45
2022-10-12T00:33:47.794Z,12.44
2022-10-12T00:36:17.924Z,12.46
2022-10-12T00:38:46.216Z,12.48
2022-10-12T00:41:14.782Z,12.48
2022-10-12T00:43:44.471Z,12.48
2022-10-12T00:46:18.485Z,12.48
2022-10-12T00:48:51.525Z,12.48
2022-10-12T00:51:22.608Z,12.47
2022-10-12T00:53:57.274Z,12.46
2022-10-12T00:56:28.854Z,12.43
2022-10-12T00:59:01.678Z,12.40
2022-10-12T01:01:30.798Z,12.40
2022-10-12T01:03:59.956Z,12.41
2022-10-12T01:06:28.028Z,12.40
2022-10-12T01:08:56.225Z,12.39
2022-10-12T01:11:23.898Z,12.39
2022-10-12T01:13:51.619Z,12.39
2022-10-12T01:16:24.023Z,12.38
2022-10-12T01:18:58.568Z,12.36
2022-10-12T01:21:28.027Z,12.34
2022-10-12T01:24:36.737Z,12.32
2022-10-12T01:27:17.321Z,12.31
2022-10-12T01:30:07.939Z,12.30
2022-10-12T01:32:44.446Z,12.27
2022-10-12T01:35:20.283Z,12.23
2022-10-12T01:37:54.636Z,12.20
2022-10-12T01:40:28.616Z,12.22
2022-10-12T01:42:58.371Z,12.28
2022-10-12T01:45:27.443Z,12.35
2022-10-12T01:47:56.259Z,12.34
2022-10-12T01:50:28.843Z,12.35
2022-10-12T01:53:02.407Z,12.36
2022-10-12T01:55:38.230Z,12.36
2022-10-12T01:58:21.103Z,12.36
2022-10-12T02:00:56.474Z,12.36
2022-10-12T02:03:34.869Z,12.36
2022-10-12T02:06:06.229Z,12.39
2022-10-12T02:08:38.859Z,12.40
2022-10-12T02:11:10.500Z,12.40
2022-10-12T02:13:43.023Z,12.41
2022-10-12T02:16:16.414Z,12.41
2022-10-12T02:18:46.715Z,12.41
2022-10-12T02:21:19.031Z,12.43
2022-10-12T02:23:49.537Z,12.43
2022-10-12T02:26:18.742Z,12.43
2022-10-12T02:28:46.664Z,12.44
2022-10-12T02:31:25.771Z,12.44
2022-10-12T02:34:01.415Z,12.45
2022-10-12T02:36:38.176Z,12.44
2022-10-12T02:39:11.695Z,12.45
2022-10-12T02:41:45.579Z,12.50
2022-10-12T02:44:16.031Z,12.47
2022-10-12T02:46:49.087Z,12.47
2022-10-12T02:49:18.488Z,12.49
2022-10-12T02:51:47.249Z,12.51
2022-10-12T02:54:16.070Z,12.51
2022-10-12T02:56:45.602Z,12.57
2022-10-12T02:59:14.089Z,12.56
2022-10-12T03:01:42.926Z,12.55
2022-10-12T03:04:12.001Z,12.55
2022-10-12T03:06:39.796Z,12.52
2022-10-12T03:09:07.717Z,12.51
2022-10-12T03:11:36.616Z,12.49
2022-10-12T03:14:04.739Z,12.48
2022-10-12T03:16:32.473Z,12.45
2022-10-12T03:19:00.237Z,12.45
2022-10-12T03:21:29.350Z,12.45
2022-10-12T03:23:57.071Z,12.46
2022-10-12T03:26:24.868Z,12.39
2022-10-12T03:28:52.635Z,12.39
2022-10-12T03:31:20.658Z,12.35
2022-10-12T03:33:48.374Z,12.34
2022-10-12T03:36:16.367Z,12.35
2022-10-12T03:38:45.504Z,12.33
2022-10-12T03:41:13.235Z,12.32
2022-10-12T03:43:40.884Z,12.31
2022-10-12T03:46:08.766Z,12.32
2022-10-12T03:48:36.570Z,12.30
2022-10-12T03:51:04.383Z,12.29
2022-10-12T03:53:32.305Z,12.28
2022-10-12T03:56:01.431Z,12.25
2022-10-12T03:58:29.215Z,12.23
2022-10-12T04:00:57.252Z,12.21
2022-10-12T04:03:25.007Z,12.19
2022-10-12T04:05:56.139Z,12.19
2022-10-12T04:08:24.620Z,12.19
2022-10-12T04:10:52.614Z,12.18
2022-10-12T04:13:21.868Z,12.17
2022-10-12T04:15:49.628Z,12.16
2022-10-12T04:18:17.673Z,12.18
2022-10-12T04:20:49.027Z,12.17
2022-10-12T04:23:16.999Z,12.15
2022-10-12T04:25:44.826Z,12.15
2022-10-12T04:28:12.730Z,12.14
2022-10-12T04:30:41.853Z,12.13
2022-10-12T04:33:09.565Z,12.13
2022-10-12T04:35:37.293Z,12.13
2022-10-12T04:38:05.540Z,12.14
2022-10-12T04:40:33.324Z,12.13
2022-10-12T04:43:01.106Z,12.13
2022-10-12T04:45:28.826Z,12.15
2022-10-12T04:47:57.955Z,12.12
2022-10-12T04:50:29.862Z,12.12
2022-10-12T04:52:58.191Z,12.13
2022-10-12T04:55:25.965Z,12.12
2022-10-12T04:57:53.750Z,12.13
2022-10-12T05:00:21.764Z,12.12
2022-10-12T05:02:49.545Z,12.13
2022-10-12T05:05:18.754Z,12.12
2022-10-12T05:07:46.500Z,12.15
2022-10-12T05:10:14.401Z,12.15
2022-10-12T05:12:42.634Z,12.14
2022-10-12T05:15:11.476Z,12.14
2022-10-12T05:17:39.770Z,12.14
2022-10-12T05:20:09.350Z,12.15
2022-10-12T05:22:38.668Z,12.14
2022-10-12T05:25:07.815Z,12.14
2022-10-12T05:27:35.962Z,12.14
2022-10-12T05:30:04.198Z,12.15
2022-10-12T05:32:31.981Z,12.15
2022-10-12T05:34:59.748Z,12.16
2022-10-12T05:37:27.563Z,12.16
2022-10-12T05:39:56.649Z,12.17
2022-10-12T05:42:25.541Z,12.18
2022-10-12T05:44:53.335Z,12.19
2022-10-12T05:47:21.256Z,12.19
2022-10-12T05:49:48.996Z,12.19
2022-10-12T05:52:16.895Z,12.21
2022-10-12T05:54:44.894Z,12.21
2022-10-12T05:57:15.252Z,12.20
2022-10-12T05:59:43.251Z,12.20
2022-10-12T06:02:14.871Z,12.21
2022-10-12T06:04:43.053Z,12.22
2022-10-12T06:07:10.873Z,12.23
2022-10-12T06:09:39.540Z,12.25
2022-10-12T06:12:07.973Z,12.27
2022-10-12T06:14:37.343Z,12.29
2022-10-12T06:17:05.243Z,12.29
2022-10-12T06:19:33.336Z,12.28
2022-10-12T06:22:01.155Z,12.28
2022-10-12T06:24:29.011Z,12.26
2022-10-12T06:26:56.920Z,12.29
2022-10-12T06:29:24.927Z,12.30
2022-10-12T06:31:54.207Z,12.33
2022-10-12T06:34:22.320Z,12.35
2022-10-12T06:36:50.167Z,12.35
2022-10-12T06:39:17.995Z,12.36
2022-10-12T06:41:46.507Z,12.36
2022-10-12T06:44:14.308Z,12.38
2022-10-12T06:46:42.077Z,12.39
2022-10-12T06:49:11.468Z,12.40
2022-10-12T06:51:39.229Z,12.40
2022-10-12T06:54:07.006Z,12.40
2022-10-12T06:56:35.066Z,12.41
2022-10-12T06:59:02.827Z,12.39
2022-10-12T07:01:30.694Z,12.39
2022-10-12T07:04:00.885Z,12.39
2022-10-12T07:06:30.339Z,12.42
2022-10-12T07:08:58.148Z,12.43
2022-10-12T07:11:25.879Z,12.46
2022-10-12T07:13:53.693Z,12.48
2022-10-12T07:16:21.461Z,12.50
2022-10-12T07:18:49.219Z,12.54
2022-10-12T07:21:17.345Z,12.56
2022-10-12T07:23:46.604Z,12.58
2022-10-12T07:26:14.430Z,12.60
2022-10-12T07:28:42.277Z,12.63
2022-10-12T07:31:10.680Z,12.65
2022-10-12T07:33:39.593Z,12.68
2022-10-12T07:36:20.918Z,12.72
2022-10-12T07:38:51.049Z,12.78
2022-10-12T07:41:19.136Z,12.86
2022-10-12T07:43:46.892Z,12.92
2022-10-12T07:46:14.819Z,12.99
2022-10-12T07:48:48.887Z,13.04
2022-10-12T07:51:17.668Z,13.08
2022-10-12T07:53:45.514Z,13.12
2022-10-12T07:56:18.759Z,13.17
2022-10-12T07:58:50.137Z,13.22
2022-10-12T08:01:19.572Z,13.25
2022-10-12T08:03:47.633Z,13.28
2022-10-12T08:06:17.636Z,13.29
2022-10-12T08:08:46.128Z,13.31
2022-10-12T08:11:16.601Z,13.32
2022-10-12T08:13:44.528Z,13.34
2022-10-12T08:16:14.987Z,13.36
2022-10-12T08:18:43.291Z,13.34
2022-10-12T08:21:12.761Z,13.33
2022-10-12T08:23:41.225Z,13.32
2022-10-12T08:26:09.301Z,13.30
2022-10-12T08:28:38.428Z,13.31
2022-10-12T08:31:11.169Z,13.35
2022-10-12T08:33:38.979Z,13.41
2022-10-12T08:36:07.919Z,13.49
2022-10-12T08:38:38.515Z,13.53
2022-10-12T08:41:18.486Z,13.60
2022-10-12T08:44:05.214Z,13.67
2022-10-12T08:46:33.536Z,13.73
2022-10-12T08:49:05.113Z,13.78
2022-10-12T08:51:40.308Z,13.84
2022-10-12T08:54:12.467Z,13.91
2022-10-12T08:56:41.252Z,13.96
2022-10-12T08:59:14.486Z,14.01
2022-10-12T09:01:58.397Z,14.09
2022-10-12T09:04:40.186Z,14.13
2022-10-12T09:07:15.890Z,14.18
2022-10-12T09:09:57.809Z,14.23
2022-10-12T09:12:40.168Z,14.30
2022-10-12T09:15:17.199Z,14.41
2022-10-12T09:17:48.531Z,14.47
2022-10-12T09:20:21.799Z,14.52
2022-10-12T09:22:51.529Z,14.57
2022-10-12T09:25:23.714Z,14.65
2022-10-12T09:27:52.219Z,14.80
2022-10-12T09:30:22.649Z,14.85
2022-10-12T09:33:17.822Z,14.93
2022-10-12T09:35:47.202Z,14.97
2022-10-12T09:38:15.305Z,14.97
2022-10-12T09:40:43.302Z,15.00
2022-10-12T09:43:11.148Z,15.08
2022-10-12T09:45:40.715Z,15.13
2022-10-12T09:48:18.240Z,15.20
2022-10-12T09:50:50.057Z,15.32
2022-10-12T09:53:26.850Z,15.42
2022-10-12T09:55:57.839Z,15.50
2022-10-12T09:58:27.680Z,15.48
2022-10-12T10:01:21.856Z,15.51
2022-10-12T10:03:51.957Z,15.52
2022-10-12T10:06:26.398Z,15.57
2022-10-12T10:08:55.082Z,15.65
2022-10-12T10:11:26.889Z,15.73
2022-10-12T10:13:55.875Z,15.78
2022-10-12T10:16:27.517Z,15.78
2022-10-12T10:19:00.560Z,15.82
2022-10-12T10:21:32.856Z,15.84
2022-10-12T10:24:02.856Z,15.84
2022-10-12T10:26:51.413Z,15.84
2022-10-12T10:29:31.819Z,15.88
2022-10-12T10:32:23.993Z,15.87
2022-10-12T10:35:03.626Z,15.86
2022-10-12T10:37:32.587Z,15.86
2022-10-12T10:40:01.038Z,15.88
2022-10-12T10:42:31.940Z,15.88
2022-10-12T10:45:02.346Z,15.87
2022-10-12T10:47:33.627Z,15.86
2022-10-12T10:50:03.779Z,15.79
2022-10-12T10:52:34.020Z,15.77
2022-10-12T10:55:19.030Z,15.74
2022-10-12T10:57:55.120Z,15.73
2022-10-12T11:00:38.560Z,15.70
2022-10-12T11:03:18.577Z,15.70
2022-10-12T11:05:51.553Z,15.71
2022-10-12T11:08:23.831Z,15.74
2022-10-12T11:10:57.315Z,15.76
2022-10-12T11:13:29.422Z,15.80
2022-10-12T11:16:01.023Z,15.86
2022-10-12T11:18:38.415Z,15.88
2022-10-12T11:21:12.618Z,15.92
2022-10-12T11:23:46.597Z,15.95
2022-10-12T11:26:25.486Z,15.99
2022-10-12T11:28:55.846Z,15.99
2022-10-12T11:31:27.791Z,16.01
2022-10-12T11:34:03.293Z,16.01
2022-10-12T11:36:33.355Z,16.01
2022-10-12T11:39:07.047Z,16.03
2022-10-12T11:42:03.131Z,16.04
2022-10-12T11:44:41.884Z,16.08
2022-10-12T11:47:17.348Z,16.14
2022-10-12T11:49:54.919Z,16.21
2022-10-12T11:52:28.561Z,16.27
2022-10-12T11:55:06.390Z,16.32
2022-10-12T11:57:38.636Z,16.36
2022-10-12T12:00:18.133Z,16.41
2022-10-12T12:02:54.730Z,16.45
2022-10-12T12:05:24.041Z,16.47
2022-10-12T12:07:54.326Z,16.51
2022-10-12T12:10:44.627Z,16.54
2022-10-12T12:13:22.982Z,16.59
2022-10-12T12:16:31.862Z,16.63
2022-10-12T12:19:16.427Z,16.64
2022-10-12T12:22:23.389Z,16.71
2022-10-12T12:24:58.013Z,16.68
2022-10-12T12:27:32.954Z,16.67
2022-10-12T12:30:02.800Z,16.69
2022-10-12T12:32:44.375Z,16.67
2022-10-12T12:35:21.319Z,16.63
2022-10-12T12:37:58.653Z,16.61
2022-10-12T12:40:26.424Z,16.61
2022-10-12T12:42:54.227Z,16.57
2022-10-12T12:45:42.097Z,16.57
2022-10-12T12:48:11.423Z,16.55
2022-10-12T12:50:41.661Z,16.55
2022-10-12T12:53:16.878Z,16.55
2022-10-12T12:56:06.321Z,16.57
2022-10-12T12:58:47.221Z,16.54
2022-10-12T13:01:29.506Z,16.52
2022-10-12T13:04:15.401Z,16.53
2022-10-12T13:07:08.582Z,16.52
2022-10-12T13:09:51.809Z,16.52
2022-10-12T13:12:32.587Z,16.48
2022-10-12T13:15:24.836Z,16.49
2022-10-12T13:18:45.952Z,16.51
2022-10-12T13:21:18.115Z,16.55
2022-10-12T13:23:48.807Z,16.54
2022-10-12T13:26:23.370Z,16.55
2022-10-12T13:28:53.003Z,16.56
2022-10-12T13:31:24.943Z,16.58
2022-10-12T13:34:00.627Z,16.57
2022-10-12T13:36:31.737Z,16.56
2022-10-12T13:39:01.176Z,16.55
2022-10-12T13:41:32.798Z,16.56
2022-10-12T13:44:04.957Z,16.57
2022-10-12T13:46:40.628Z,16.61
2022-10-12T13:49:17.145Z,16.60
2022-10-12T13:51:47.059Z,16.59
2022-10-12T13:54:19.802Z,16.61
2022-10-12T13:56:51.733Z,16.61
2022-10-12T13:59:22.832Z,16.56
2022-10-12T14:01:57.356Z,16.53
2022-10-12T14:04:29.156Z,16.52
2022-10-12T14:07:01.741Z,16.51
2022-10-12T14:09:37.463Z,16.50
2022-10-12T14:12:06.910Z,16.52
2022-10-12T14:14:37.380Z,16.50
2022-10-12T14:17:05.425Z,16.48
2022-10-12T14:19:36.960Z,16.48
2022-10-12T14:22:04.900Z,16.47
2022-10-12T14:24:34.316Z,16.50
2022-10-12T14:27:03.797Z,16.48
2022-10-12T14:29:42.826Z,16.48
2022-10-12T14:32:42.393Z,16.52
2022-10-12T14:35:22.547Z,16.51
2022-10-12T14:37:51.742Z,16.50
2022-10-12T14:40:40.672Z,16.53
2022-10-12T14:43:24.115Z,16.52
2022-10-12T14:45:53.334Z,16.53
2022-10-12T14:48:23.417Z,16.55
2022-10-12T14:50:51.645Z,16.55
2022-10-12T14:53:19.392Z,16.53
2022-10-12T14:55:49.704Z,16.53
2022-10-12T14:58:20.084Z,16.52
2022-10-12T15:00:47.859Z,16.50
2022-10-12T15:03:17.951Z,16.54
2022-10-12T15:05:45.656Z,16.55
2022-10-12T15:08:13.372Z,16.54
2022-10-12T15:10:41.061Z,16.54
2022-10-12T15:13:13.227Z,16.49
2022-10-12T15:15:43.957Z,16.47
2022-10-12T15:18:11.997Z,16.43
2022-10-12T15:20:45.393Z,16.39
2022-10-12T15:23:16.113Z,16.40
2022-10-12T15:25:48.815Z,16.34
2022-10-12T15:28:16.748Z,16.28
2022-10-12T15:31:12.200Z,16.23
2022-10-12T15:33:34.681Z,16.15
2022-10-12T15:36:03.789Z,16.12
2022-10-12T15:38:31.606Z,16.06
2022-10-12T15:40:59.477Z,16.00
2022-10-12T15:43:27.607Z,15.96
2022-10-12T15:45:56.702Z,15.89
2022-10-12T15:48:24.432Z,15.84
2022-10-12T15:50:52.330Z,15.76
2022-10-12T15:53:24.682Z,15.72
2022-10-12T15:55:53.097Z,15.67
2022-10-12T15:58:21.506Z,15.62
2022-10-12T16:00:49.703Z,15.57
2022-10-12T16:03:24.572Z,15.51
2022-10-12T16:05:53.704Z,15.46
2022-10-12T16:08:24.068Z,15.40
2022-10-12T16:10:51.921Z,15.35
2022-10-12T16:13:19.950Z,15.29
2022-10-12T16:15:47.752Z,15.24
2022-10-12T16:18:16.734Z,15.18
2022-10-12T16:20:49.734Z,15.12
2022-10-12T16:23:24.764Z,15.08
2022-10-12T16:25:52.805Z,15.05
2022-10-12T16:28:20.766Z,14.99
2022-10-12T16:30:49.046Z,14.94
2022-10-12T16:33:17.216Z,14.87
2022-10-12T16:35:45.198Z,14.79
2022-10-12T16:38:14.685Z,14.72
2022-10-12T16:40:44.109Z,14.67
2022-10-12T16:43:12.297Z,14.62
2022-10-12T16:45:40.078Z,14.59
2022-10-12T16:48:07.970Z,14.55
2022-10-12T16:50:39.918Z,14.52
2022-10-12T16:53:08.832Z,14.50
2022-10-12T16:55:38.553Z,14.45
2022-10-12T16:58:07.740Z,14.40
2022-10-12T17:00:35.542Z,14.34
2022-10-12T17:03:03.372Z,14.27
2022-10-12T17:06:09.030Z,14.21
2022-10-12T17:09:47.360Z,14.17
2022-10-12T17:12:15.255Z,14.10
2022-10-12T17:14:44.605Z,14.04
2022-10-12T17:17:12.356Z,14.00
2022-10-12T17:19:40.866Z,13.96
2022-10-12T17:22:10.651Z,13.92
2022-10-12T17:24:42.225Z,13.90
2022-10-12T17:27:12.154Z,13.87
2022-10-12T17:29:41.055Z,13.86
2022-10-12T17:32:10.974Z,13.81
2022-10-12T17:34:43.430Z,13.77
2022-10-12T17:37:14.992Z,13.74
2022-10-12T17:39:45.799Z,13.69
2022-10-12T17:42:14.251Z,13.66
2022-10-12T17:44:42.211Z,13.63
2022-10-12T17:47:11.296Z,13.60
2022-10-12T17:49:39.175Z,13.56
2022-10-12T17:52:07.531Z,13.52
2022-10-12T17:54:37.313Z,13.50
2022-10-12T17:57:06.126Z,13.45
2022-10-12T17:59:33.953Z,13.39
2022-10-12T18:02:01.648Z,13.36
2022-10-12T18:04:30.729Z,13.28
2022-10-12T18:06:58.476Z,13.23
2022-10-12T18:09:26.248Z,13.20
2022-10-12T18:12:06.648Z,13.12
2022-10-12T18:14:34.359Z,13.09
2022-10-12T18:17:02.067Z,13.07
2022-10-12T18:19:32.471Z,13.03
2022-10-12T18:22:00.257Z,12.98
2022-10-12T18:24:29.061Z,12.93
2022-10-12T18:26:56.815Z,12.89
2022-10-12T18:29:25.612Z,12.81
2022-10-12T18:31:54.064Z,12.67
2022-10-12T18:34:21.933Z,12.57
2022-10-12T18:37:00.352Z,12.42
2022-10-12T18:39:28.163Z,12.32
2022-10-12T18:41:55.904Z,12.28
2022-10-12T18:44:23.705Z,12.19
2022-10-12T18:46:51.457Z,12.11
2022-10-12T18:49:19.172Z,12.10
2022-10-12T18:51:48.560Z,12.04
2022-10-12T18:54:18.020Z,12.01
2022-10-12T18:56:45.904Z,11.91
2022-10-12T18:59:17.432Z,11.84
2022-10-12T19:01:47.720Z,11.77
2022-10-12T19:04:15.519Z,11.70
2022-10-12T19:06:44.384Z,11.65
2022-10-12T19:09:14.144Z,11.68
2022-10-12T19:11:43.244Z,11.62
2022-10-12T19:14:14.685Z,11.55
2022-10-12T19:16:43.767Z,11.50
2022-10-12T19:19:18.177Z,11.50
2022-10-12T19:21:48.561Z,11.46
2022-10-12T19:24:16.455Z,11.33
2022-10-12T19:26:45.915Z,11.26
2022-10-12T19:29:14.131Z,11.19
2022-10-12T19:31:45.234Z,11.15
2022-10-12T19:34:14.870Z,11.14
2022-10-12T19:36:42.987Z,11.13
2022-10-12T19:39:14.913Z,11.05
2022-10-12T19:41:42.849Z,11.06
2022-10-12T19:44:12.784Z,11.03
2022-10-12T19:46:42.589Z,10.98
2022-10-12T19:49:13.575Z,10.94
2022-10-12T19:51:41.410Z,10.94
2022-10-12T19:54:12.395Z,10.93
2022-10-12T19:56:40.427Z,10.95
2022-10-12T19:59:08.391Z,10.94
2022-10-12T20:01:39.044Z,10.96
2022-10-12T20:04:09.971Z,10.96
2022-10-12T20:06:39.123Z,10.91
2022-10-12T20:09:08.461Z,10.88
2022-10-12T20:11:38.189Z,10.85
2022-10-12T20:14:07.682Z,10.82
2022-10-12T20:16:37.342Z,10.83
2022-10-12T20:19:06.836Z,10.81
2022-10-12T20:21:36.374Z,10.72
2022-10-12T20:24:04.950Z,10.70
2022-10-12T20:26:32.759Z,10.64
2022-10-12T20:29:01.596Z,10.57
2022-10-12T20:31:29.544Z,10.50
2022-10-12T20:33:58.706Z,10.48
2022-10-12T20:36:28.757Z,10.44
2022-10-12T20:38:57.767Z,10.45
2022-10-12T20:41:25.934Z,10.43
2022-10-12T20:43:55.739Z,10.40
2022-10-12T20:46:23.764Z,10.37
2022-10-12T20:48:56.002Z,10.37
2022-10-12T20:51:29.372Z,10.34
2022-10-12T20:53:59.193Z,10.30
2022-10-12T20:56:27.118Z,10.28
2022-10-12T20:58:55.296Z,10.20
2022-10-12T21:01:23.448Z,10.16
2022-10-12T21:03:51.211Z,10.12
2022-10-12T21:06:20.405Z,10.07
2022-10-12T21:08:52.302Z,10.04
2022-10-12T21:11:20.327Z,10.04
2022-10-12T21:13:48.351Z,10.08
2022-10-12T21:16:16.656Z,10.08
2022-10-12T21:18:44.492Z,10.06
2022-10-12T21:21:13.881Z,10.07
2022-10-12T21:23:42.765Z,10.07
2022-10-12T21:26:13.939Z,10.07
2022-10-12T21:28:42.044Z,10.01
2022-10-12T21:31:10.357Z,9.99
2022-10-12T21:33:38.838Z,9.99
2022-10-12T21:36:08.336Z,10.05
2022-10-12T21:38:36.334Z,10.08
2022-10-12T21:41:04.364Z,10.08
2022-10-12T21:43:33.600Z,10.03
2022-10-12T21:46:06.041Z,9.97
2022-10-12T21:48:34.829Z,9.94
2022-10-12T21:51:03.753Z,9.96
2022-10-12T21:53:32.006Z,9.99
2022-10-12T21:55:59.705Z,10.04
2022-10-12T21:58:27.434Z,10.08
2022-10-12T22:01:04.982Z,10.13
2022-10-12T22:03:32.846Z,10.09
2022-10-12T22:06:00.727Z,10.04
2022-10-12T22:08:28.575Z,10.05
2022-10-12T22:10:57.024Z,10.09
2022-10-12T22:13:24.957Z,10.09
2022-10-12T22:16:02.715Z,10.10
2022-10-12T22:18:30.513Z,10.12
2022-10-12T22:20:58.321Z,10.11
2022-10-12T22:23:26.161Z,10.13
2022-10-12T22:25:54.524Z,10.15
2022-10-12T22:28:22.254Z,10.16
2022-10-12T22:30:50.052Z,10.18
2022-10-12T22:33:20.341Z,10.18
2022-10-12T22:35:54.179Z,10.20
2022-10-12T22:38:22.354Z,10.26
2022-10-12T22:40:57.436Z,10.26
2022-10-12T22:43:25.192Z,10.25
2022-10-12T22:45:53.448Z,10.25
2022-10-12T22:48:23.510Z,10.25
2022-10-12T22:50:51.909Z,10.25
2022-10-12T22:53:21.239Z,10.25
2022-10-12T22:55:49.615Z,10.21
2022-10-12T22:58:17.348Z,10.19
2022-10-12T23:00:45.142Z,10.20
2022-10-12T23:03:12.843Z,10.19
2022-10-12T23:05:48.741Z,10.21
2022-10-12T23:08:16.490Z,10.20
2022-10-12T23:10:44.230Z,10.19
2022-10-12T23:13:11.960Z,10.16
2022-10-12T23:15:39.727Z,10.17
2022-10-12T23:18:07.708Z,10.15
2022-10-12T23:20:40.434Z,10.18
2022-10-12T23:23:09.690Z,10.17
2022-10-12T23:25:40.508Z,10.15
2022-10-12T23:28:09.233Z,10.14
2022-10-12T23:30:38.396Z,10.13
2022-10-12T23:33:06.160Z,10.14
2022-10-12T23:35:33.928Z,10.10
2022-10-12T23:38:01.661Z,10.12
2022-10-12T23:40:30.767Z,10.13
2022-10-12T23:42:58.551Z,10.10
2022-10-12T23:45:26.321Z,10.10
2022-10-12T23:47:54.064Z,10.08
2022-10-12T23:50:21.769Z,10.09
2022-10-12T23:52:49.467Z,10.06
2022-10-12T23:55:17.307Z,10.06
2022-10-12T23:57:47.537Z,10.05
